CheckWX is a tool to help pilots better visualize weather data.  It is not intended as a substitute for an official pre-flight weather briefing.

03:12:46 UTC

KMCN TAF
Middle Georgia Regional Airport
Macon, Georgia, USA
KMCN 252323Z 2600/2624 10006KT P6SM BKN026 OVC040 FM260800 09006KT P6SM OVC015 FM261000 08006KT P6SM OVC009 FM261400 09007KT P6SM VCSH OVC012 FM261800 11009KT P6SM VCSH BKN028 BKN040 PROB30 2620/2624 4SM TSRA OVC020CB

Aug-26@
00:00 UTC

Aug-26 @ 00:00 UTC

Aug-26@
08:00 UTC

Aug-26 @ 08:00 UTC

KMCN 252323Z 2600/2624 10006KT P6SM BKN026 OVC040
Wind
  • 100° at 6 KTS
Cloud Levels
  • Broken at 2,600' AGL
  • Overcast at 4,000' AGL

Aug-26@
08:00 UTC

Aug-26 @ 08:00 UTC

Aug-26@
10:00 UTC

Aug-26 @ 10:00 UTC

FM260800 09006KT P6SM OVC015

From

From Standard forecast or significant change

Wind
  • 090° at 6 KTS
Cloud Levels
  • Overcast at 1,500' AGL

Aug-26@
10:00 UTC

Aug-26 @ 10:00 UTC

Aug-26@
14:00 UTC

Aug-26 @ 14:00 UTC

FM261000 08006KT P6SM OVC009

From

From Standard forecast or significant change

Wind
  • 080° at 6 KTS
Cloud Levels
  • Overcast at 900' AGL

Aug-26@
14:00 UTC

Aug-26 @ 14:00 UTC

Aug-26@
18:00 UTC

Aug-26 @ 18:00 UTC

FM261400 09007KT P6SM VCSH OVC012

From

From Standard forecast or significant change

Wind
  • 090° at 7 KTS
Cloud Levels
  • Overcast at 1,200' AGL

Aug-26@
18:00 UTC

Aug-26 @ 18:00 UTC

Aug-27@
00:00 UTC

Aug-27 @ 00:00 UTC

FM261800 11009KT P6SM VCSH BKN028 BKN040

From

From Standard forecast or significant change

Wind
  • 110° at 9 KTS
Cloud Levels
  • Broken at 2,800' AGL
  • Broken at 4,000' AGL

Aug-26@
20:00 UTC

Aug-26 @ 20:00 UTC

Aug-27@
00:00 UTC

Aug-27 @ 00:00 UTC

PROB30 2620/2624 4SM TSRA OVC020CB

Probable - 30% Likelihood

Probable - 30% Likelihood during this time.

Conditions
Thunderstorm, Rain
Cloud Levels
  • Overcast at 2,000' AGL